सभी
Geraldton Airport (Geraldton, Western Australia) GET मौसम
|
Geraldton, Western Australia (GET / YGEL)
स्वच्छ आकाश
तेज हवाएं |
|
23 °C |
GET Terminal Area Forecast
| Here is the undecoded forecast: 2026/05/04 23:17 YGEL 042317Z 0500/0518 06014KT CAVOK FM050600 13010KT CAVOK RMK FM050000 MOD TURB BLW 3000FT TL050100 FM051500 MOD TURB BLW 3000FT T 15 24 26 25 Q 1023 1023 1020 1021 |
Recent GET METAR history
| Date | Time (AWST) | Flight Rules | Wind Dir. | Speed | Type | Height AGL (ft) | Visibility | Temp (°C) | Temp (°F) | Dew Point (°C) | Dew Point (°F) | Rel. Humid. | Pressure | Density Altitude | Remarks |
|---|---|---|---|---|---|---|---|---|---|---|---|---|---|---|---|
| 05-मई | 10:30 | VFR | 60° | 19 kt | 10000 meters | 23° | 73° | 6° | 42° | 33% | 1023 mb | 792 ft | |||
| 05-मई | 10:00 | VFR | 60° | 18 kt | 10000 meters | 23° | 73° | 7° | 44° | 36% | 1023 mb | 792 ft | |||
| 05-मई | 09:30 | VFR | 70° | 18 kt | 10000 meters | 21° | 69° | 7° | 44° | 40% | 1023 mb | 552 ft | |||
| 05-मई | 09:00 | VFR | 70° | 13 kt | 10000 meters | 19° | 66° | 7° | 44° | 46% | 1023 mb | 312 ft | |||
| 05-मई | 08:30 | VFR | 80° | 13 kt | 10000 meters | 18° | 64° | 7° | 44° | 49% | 1023 mb | 192 ft | |||
| 05-मई | 08:00 | VFR | 80° | 12 kt | 10000 meters | 16° | 60° | 7° | 44° | 55% | 1023 mb | -48 ft | |||
| 05-मई | 07:30 | VFR | 80° | 9 kt | 10000 meters | 14° | 57° | 7° | 44° | 63% | 1023 mb | -288 ft | |||
| 05-मई | 07:00 | VFR | 80° | 9 kt | 10000 meters | 12° | 53° | 6° | 42° | 67% | 1023 mb | -528 ft | |||
| 05-मई | 06:30 | VFR | Calm | 10000 meters | 11° | 51° | 6° | 42° | 71% | 1023 mb | -648 ft | ||||
| 05-मई | 06:00 | VFR | 120° | 4 kt | 10000 meters | 11° | 51° | 5° | 41° | 66% | 1023 mb | -648 ft | |||
| 05-मई | 05:30 | VFR | 140° | 5 kt | 10000 meters | 13° | 55° | 6° | 42° | 62% | 1022 mb | -379 ft | |||
| 05-मई | 05:00 | VFR | 150° | 8 kt | 10000 meters | 12° | 53° | 7° | 44° | 71% | 1022 mb | -499 ft | |||
| 05-मई | 04:30 | VFR | 170° | 8 kt | 10000 meters | 12° | 53° | 6° | 42° | 67% | 1022 mb | -499 ft | |||
| 05-मई | 04:00 | VFR | 180° | 8 kt | 10000 meters | 12° | 53° | 6° | 42° | 67% | 1022 mb | -499 ft | |||
| 05-मई | 03:30 | VFR | 190° | 7 kt | 10000 meters | 13° | 55° | 7° | 44° | 67% | 1022 mb | -379 ft | |||
| 05-मई | 03:00 | VFR | 190° | 5 kt | 10000 meters | 11° | 51° | 6° | 42° | 71% | 1022 mb | -619 ft | |||
| 05-मई | 02:30 | VFR | 170° | 4 kt | 10000 meters | 11° | 51° | 5° | 41° | 66% | 1022 mb | -619 ft | |||
| 05-मई | 02:00 | VFR | 120° | 5 kt | 10000 meters | 13° | 55° | 6° | 42° | 62% | 1022 mb | -379 ft | |||
| 05-मई | 01:30 | VFR | 90° | 6 kt | 10000 meters | 13° | 55° | 5° | 41° | 58% | 1022 mb | -379 ft | |||
| 05-मई | 01:00 | VFR | 90° | 7 kt | 10000 meters | 14° | 57° | 6° | 42° | 58% | 1022 mb | -259 ft | |||
| 05-मई | 00:30 | VFR | 40° | 5 kt | 10000 meters | 14° | 57° | 6° | 42° | 58% | 1022 mb | -259 ft | |||
| 05-मई | 00:00 | VFR | 90° | 6 kt | 10000 meters | 14° | 57° | 6° | 42° | 58% | 1022 mb | -259 ft | |||
| 04-मई | 23:30 | VFR | 90° | 10 kt | 10000 meters | 15° | 59° | 6° | 42° | 55% | 1022 mb | -139 ft | |||
| 04-मई | 23:00 | VFR | 100° | 9 kt | 10000 meters | 15° | 59° | 6° | 42° | 55% | 1022 mb | -139 ft |
लॉगिन
| Your browser is unsupported. अपना ब्राऊजर अपग्रेड करें |
